createdAt,value
2023-03-19T00:02:17.017Z,8.60
2023-03-19T00:04:45.301Z,8.60
2023-03-19T00:07:12.268Z,8.50
2023-03-19T00:09:39.088Z,8.60
2023-03-19T00:12:05.937Z,8.50
2023-03-19T00:14:32.502Z,8.50
2023-03-19T00:16:59.158Z,8.50
2023-03-19T00:19:25.747Z,8.50
2023-03-19T00:21:52.355Z,8.50
2023-03-19T00:24:19.123Z,8.50
2023-03-19T00:26:46.103Z,8.50
2023-03-19T00:29:12.878Z,8.40
2023-03-19T00:31:39.518Z,8.40
2023-03-19T00:34:06.187Z,8.40
2023-03-19T00:36:32.755Z,8.50
2023-03-19T00:38:59.580Z,8.40
2023-03-19T00:41:26.232Z,8.40
2023-03-19T00:43:54.550Z,8.40
2023-03-19T00:46:21.899Z,8.30
2023-03-19T00:48:48.951Z,8.40
2023-03-19T00:51:15.571Z,8.40
2023-03-19T00:53:44.276Z,8.30
2023-03-19T00:56:12.847Z,8.30
2023-03-19T00:58:40.062Z,8.30
2023-03-19T01:01:08.055Z,8.20
2023-03-19T01:03:35.302Z,8.20
2023-03-19T01:06:01.842Z,8.10
2023-03-19T01:08:28.528Z,8.20
2023-03-19T01:10:55.132Z,8.20
2023-03-19T01:13:21.732Z,8.20
2023-03-19T01:15:52.592Z,8.20
2023-03-19T01:18:19.187Z,8.20
2023-03-19T01:20:45.739Z,8.30
2023-03-19T01:23:12.313Z,8.20
2023-03-19T01:25:39.488Z,8.20
2023-03-19T01:28:06.136Z,8.20
2023-03-19T01:30:32.958Z,8.20
2023-03-19T01:32:59.744Z,8.20
2023-03-19T01:35:26.392Z,8.20
2023-03-19T01:37:52.961Z,8.20
2023-03-19T01:40:19.594Z,8.10
2023-03-19T01:42:53.113Z,8.10
2023-03-19T01:45:37.838Z,8.10
2023-03-19T01:48:05.436Z,8.00
2023-03-19T01:50:37.297Z,8.00
2023-03-19T01:53:04.310Z,8.00
2023-03-19T01:55:31.236Z,7.90
2023-03-19T01:57:57.870Z,7.90
2023-03-19T02:00:24.834Z,7.80
2023-03-19T02:02:56.321Z,7.80
2023-03-19T02:05:22.999Z,7.90
2023-03-19T02:07:49.648Z,7.80
2023-03-19T02:10:17.345Z,7.80
2023-03-19T02:12:43.903Z,7.90
2023-03-19T02:15:12.197Z,7.80
2023-03-19T02:17:40.414Z,7.80
2023-03-19T02:20:25.845Z,7.80
2023-03-19T02:23:04.873Z,7.70
2023-03-19T02:25:46.384Z,7.60
2023-03-19T02:28:15.789Z,7.60
2023-03-19T02:30:44.356Z,7.60
2023-03-19T02:33:15.399Z,7.60
2023-03-19T02:35:43.159Z,7.60
2023-03-19T02:38:11.331Z,7.60
2023-03-19T02:40:48.964Z,7.60
2023-03-19T02:43:15.688Z,7.60
2023-03-19T02:45:42.283Z,7.60
2023-03-19T02:48:09.045Z,7.70
2023-03-19T02:50:35.748Z,7.60
2023-03-19T02:53:02.600Z,7.60
2023-03-19T02:55:29.470Z,7.60
2023-03-19T02:57:56.054Z,7.60
2023-03-19T03:00:22.718Z,7.70
2023-03-19T03:02:49.286Z,7.70
2023-03-19T03:05:15.884Z,7.70
2023-03-19T03:07:42.424Z,7.60
2023-03-19T03:10:10.188Z,7.60
2023-03-19T03:12:36.861Z,7.50
2023-03-19T03:15:03.630Z,7.60
2023-03-19T03:17:30.220Z,7.60
2023-03-19T03:19:56.822Z,7.70
2023-03-19T03:22:23.435Z,7.60
2023-03-19T03:24:50.039Z,7.60
2023-03-19T03:27:16.584Z,7.40
2023-03-19T03:29:43.154Z,7.40
2023-03-19T03:32:09.867Z,7.50
2023-03-19T03:34:36.431Z,7.50
2023-03-19T03:37:02.959Z,7.60
2023-03-19T03:39:29.605Z,7.50
2023-03-19T03:41:56.187Z,7.50
2023-03-19T03:44:22.800Z,7.50
2023-03-19T03:46:49.471Z,7.60
2023-03-19T03:49:16.066Z,7.60
2023-03-19T03:51:42.851Z,7.60
2023-03-19T03:54:09.453Z,7.60
2023-03-19T03:56:35.985Z,7.60
2023-03-19T03:59:02.628Z,7.60
2023-03-19T04:01:29.519Z,7.60
2023-03-19T04:03:56.250Z,7.70
2023-03-19T04:06:24.744Z,7.70
2023-03-19T04:08:51.310Z,7.70
2023-03-19T04:11:17.882Z,7.70
2023-03-19T04:13:44.431Z,7.70
2023-03-19T04:16:11.478Z,7.60
2023-03-19T04:18:38.352Z,7.60
2023-03-19T04:21:05.999Z,7.60
2023-03-19T04:23:32.842Z,7.70
2023-03-19T04:26:00.972Z,7.70
2023-03-19T04:28:28.258Z,7.70
2023-03-19T04:31:06.210Z,7.80
2023-03-19T04:33:33.471Z,7.80
2023-03-19T04:36:00.344Z,7.80
2023-03-19T04:38:27.651Z,7.80
2023-03-19T04:40:54.912Z,7.80
2023-03-19T04:43:25.236Z,7.80
2023-03-19T04:45:51.841Z,7.80
2023-03-19T04:48:18.615Z,7.90
2023-03-19T04:50:45.871Z,7.80
2023-03-19T04:53:13.070Z,7.90
2023-03-19T04:55:39.685Z,7.80
2023-03-19T04:58:06.355Z,7.90
2023-03-19T05:00:33.281Z,7.90
2023-03-19T05:02:59.985Z,7.90
2023-03-19T05:05:26.547Z,7.80
2023-03-19T05:07:53.374Z,7.90
2023-03-19T05:10:20.034Z,7.90
2023-03-19T05:12:46.630Z,7.90
2023-03-19T05:15:14.543Z,7.90
2023-03-19T05:17:41.304Z,7.90
2023-03-19T05:20:09.058Z,7.80
2023-03-19T05:22:35.649Z,8.00
2023-03-19T05:25:02.180Z,8.20
2023-03-19T05:27:28.730Z,8.10
2023-03-19T05:29:55.316Z,8.20
2023-03-19T05:32:21.857Z,8.20
2023-03-19T05:34:48.442Z,8.20
2023-03-19T05:37:15.177Z,8.20
2023-03-19T05:39:41.769Z,8.20
2023-03-19T05:42:08.747Z,8.20
2023-03-19T05:44:35.393Z,8.20
2023-03-19T05:47:01.959Z,8.30
2023-03-19T05:49:28.557Z,8.20
2023-03-19T05:51:55.144Z,8.20
2023-03-19T05:54:21.724Z,8.20
2023-03-19T05:56:48.271Z,8.20
2023-03-19T05:59:14.891Z,8.30
2023-03-19T06:01:41.478Z,8.30
2023-03-19T06:04:08.173Z,8.30
2023-03-19T06:06:34.797Z,8.30
2023-03-19T06:09:01.399Z,8.30
2023-03-19T06:11:27.981Z,8.30
2023-03-19T06:13:54.596Z,8.30
2023-03-19T06:16:21.274Z,8.40
2023-03-19T06:18:47.896Z,8.40
2023-03-19T06:21:14.495Z,8.40
2023-03-19T06:23:41.033Z,8.40
2023-03-19T06:26:07.721Z,8.40
2023-03-19T06:28:34.500Z,8.40
2023-03-19T06:31:01.036Z,8.50
2023-03-19T06:33:27.674Z,8.50
2023-03-19T06:35:54.251Z,8.50
2023-03-19T06:38:20.817Z,8.50
2023-03-19T06:40:47.367Z,8.50
2023-03-19T06:43:13.954Z,8.50
2023-03-19T06:45:40.603Z,8.60
2023-03-19T06:48:07.409Z,8.60
2023-03-19T06:50:34.316Z,8.70
2023-03-19T06:53:01.017Z,8.70
2023-03-19T06:55:27.561Z,8.70
2023-03-19T06:57:54.109Z,8.80
2023-03-19T07:00:20.789Z,8.90
2023-03-19T07:02:47.424Z,9.00
2023-03-19T07:05:14.285Z,9.00
2023-03-19T07:07:40.905Z,9.10
2023-03-19T07:10:08.084Z,9.20
2023-03-19T07:12:34.849Z,9.20
2023-03-19T07:15:01.574Z,9.20
2023-03-19T07:17:28.132Z,9.20
2023-03-19T07:19:54.744Z,9.10
2023-03-19T07:22:21.411Z,9.20
2023-03-19T07:24:48.124Z,9.20
2023-03-19T07:27:14.692Z,9.10
2023-03-19T07:29:41.405Z,9.10
2023-03-19T07:32:10.096Z,9.10
2023-03-19T07:34:36.682Z,9.10
2023-03-19T07:37:03.306Z,9.10
2023-03-19T07:39:29.874Z,9.00
2023-03-19T07:41:56.421Z,9.00
2023-03-19T07:44:22.999Z,9.00
2023-03-19T07:46:49.613Z,9.00
2023-03-19T07:49:16.196Z,9.00
2023-03-19T07:51:42.795Z,9.00
2023-03-19T07:54:09.367Z,8.90
2023-03-19T07:56:35.976Z,8.90
2023-03-19T07:59:02.572Z,8.90
2023-03-19T08:01:29.146Z,9.00
2023-03-19T08:03:55.692Z,9.00
2023-03-19T08:06:22.245Z,9.00
2023-03-19T08:08:48.909Z,9.10
2023-03-19T08:11:15.848Z,9.00
2023-03-19T08:13:42.650Z,9.00
2023-03-19T08:16:09.355Z,9.00
2023-03-19T08:18:36.570Z,9.10
2023-03-19T08:21:03.769Z,9.10
2023-03-19T08:23:30.399Z,9.10
2023-03-19T08:25:57.246Z,9.20
2023-03-19T08:28:24.046Z,9.10
2023-03-19T08:30:50.721Z,9.20
2023-03-19T08:33:17.576Z,9.20
2023-03-19T08:35:44.264Z,9.30
2023-03-19T08:38:10.839Z,9.40
2023-03-19T08:40:37.606Z,9.40
2023-03-19T08:43:04.245Z,9.50
2023-03-19T08:45:30.823Z,9.50
2023-03-19T08:47:57.424Z,9.60
2023-03-19T08:50:24.049Z,9.70
2023-03-19T08:52:50.620Z,9.60
2023-03-19T08:55:17.331Z,9.60
2023-03-19T08:57:43.924Z,9.60
2023-03-19T09:00:11.099Z,9.60
2023-03-19T09:02:37.702Z,9.60
2023-03-19T09:05:04.546Z,9.70
2023-03-19T09:07:31.125Z,9.70
2023-03-19T09:09:57.730Z,9.70
2023-03-19T09:12:24.373Z,9.80
2023-03-19T09:14:50.911Z,9.80
2023-03-19T09:17:17.490Z,9.80
2023-03-19T09:19:44.261Z,9.90
2023-03-19T09:22:10.816Z,9.90
2023-03-19T09:24:40.401Z,9.90
2023-03-19T09:27:07.335Z,9.90
2023-03-19T09:29:33.872Z,10.00
2023-03-19T09:32:00.661Z,10.00
2023-03-19T09:34:27.354Z,10.10
2023-03-19T09:36:54.001Z,10.10
2023-03-19T09:39:20.583Z,10.30
2023-03-19T09:42:10.119Z,10.30
2023-03-19T09:44:38.609Z,10.40
2023-03-19T09:47:23.964Z,10.40
2023-03-19T09:49:51.202Z,10.50
2023-03-19T09:52:45.549Z,10.60
2023-03-19T09:55:25.059Z,10.60
2023-03-19T09:57:57.240Z,10.60
2023-03-19T10:00:27.411Z,10.80
2023-03-19T10:03:06.259Z,10.90
2023-03-19T10:06:04.321Z,11.10
2023-03-19T10:09:04.005Z,11.20
2023-03-19T10:11:52.133Z,11.20
2023-03-19T10:14:47.940Z,11.30
2023-03-19T10:17:20.766Z,11.40
2023-03-19T10:19:53.168Z,11.40
2023-03-19T10:22:25.636Z,11.50
2023-03-19T10:24:53.922Z,11.60
2023-03-19T10:27:22.898Z,11.70
2023-03-19T10:29:49.469Z,11.80
2023-03-19T10:32:28.580Z,11.90
2023-03-19T10:34:58.573Z,11.90
2023-03-19T10:37:28.068Z,12.10
2023-03-19T10:39:59.513Z,12.00
2023-03-19T10:42:44.832Z,12.10
2023-03-19T10:45:47.174Z,12.20
2023-03-19T10:48:17.519Z,12.30
2023-03-19T10:51:03.463Z,12.30
2023-03-19T10:53:36.346Z,12.50
2023-03-19T10:56:15.358Z,12.70
2023-03-19T10:59:06.295Z,12.80
2023-03-19T11:01:35.216Z,13.10
2023-03-19T11:04:11.726Z,13.10
2023-03-19T11:06:38.740Z,13.20
2023-03-19T11:09:08.273Z,13.10
2023-03-19T11:11:50.423Z,12.90
2023-03-19T11:14:29.778Z,12.90
2023-03-19T11:17:04.694Z,13.00
2023-03-19T11:19:40.632Z,13.00
2023-03-19T11:22:30.712Z,12.90
2023-03-19T11:25:01.301Z,12.80
2023-03-19T11:27:30.596Z,12.80
2023-03-19T11:29:57.455Z,12.80
2023-03-19T11:32:38.390Z,12.90
2023-03-19T11:35:51.128Z,12.90
2023-03-19T11:38:48.786Z,12.90
2023-03-19T11:41:38.437Z,12.90
2023-03-19T11:44:27.801Z,12.90
2023-03-19T11:47:24.620Z,12.90
2023-03-19T11:50:03.244Z,12.90
2023-03-19T11:52:38.474Z,13.00
2023-03-19T11:55:48.381Z,13.00
2023-03-19T11:58:42.163Z,12.90
2023-03-19T12:01:35.110Z,13.00
2023-03-19T12:04:29.562Z,13.00
2023-03-19T12:07:08.747Z,13.10
2023-03-19T12:09:50.494Z,13.20
2023-03-19T12:12:33.687Z,13.40
2023-03-19T12:15:23.422Z,13.60
2023-03-19T12:17:58.600Z,13.60
2023-03-19T12:20:34.654Z,13.70
2023-03-19T12:23:01.170Z,13.80
2023-03-19T12:25:34.245Z,13.90
2023-03-19T12:28:00.853Z,14.20
2023-03-19T12:30:43.428Z,14.30
2023-03-19T12:33:31.351Z,14.30
2023-03-19T12:35:59.898Z,14.50
2023-03-19T12:38:28.817Z,14.50
2023-03-19T12:41:09.048Z,14.30
2023-03-19T12:43:35.561Z,14.40
2023-03-19T12:46:18.750Z,14.50
2023-03-19T12:48:48.620Z,14.90
2023-03-19T12:51:20.096Z,15.20
2023-03-19T12:54:02.763Z,15.40
2023-03-19T12:56:35.402Z,15.50
2023-03-19T12:59:36.490Z,15.70
2023-03-19T13:02:22.550Z,15.40
2023-03-19T13:05:02.598Z,15.80
2023-03-19T13:07:47.624Z,15.90
2023-03-19T13:10:19.295Z,16.30
2023-03-19T13:12:47.645Z,16.50
2023-03-19T13:15:28.982Z,16.40
2023-03-19T13:18:04.327Z,16.60
2023-03-19T13:20:59.921Z,16.50
2023-03-19T13:23:34.974Z,16.30
2023-03-19T13:26:05.726Z,16.60
2023-03-19T13:28:36.341Z,16.50
2023-03-19T13:31:17.379Z,16.50
2023-03-19T13:33:53.701Z,16.60
2023-03-19T13:36:21.161Z,16.60
2023-03-19T13:38:50.596Z,16.60
2023-03-19T13:41:35.506Z,16.50
2023-03-19T13:44:22.047Z,16.20
2023-03-19T13:46:49.576Z,16.10
2023-03-19T13:49:44.099Z,15.90
2023-03-19T13:52:10.640Z,15.80
2023-03-19T13:54:40.529Z,15.70
2023-03-19T13:57:19.416Z,15.50
2023-03-19T13:59:47.751Z,15.30
2023-03-19T14:02:23.491Z,15.20
2023-03-19T14:04:56.675Z,15.30
2023-03-19T14:07:29.967Z,15.30
2023-03-19T14:09:59.576Z,15.30
2023-03-19T14:12:31.310Z,15.30
2023-03-19T14:15:22.416Z,15.30
2023-03-19T14:17:57.643Z,15.30
2023-03-19T14:20:39.270Z,15.50
2023-03-19T14:23:11.339Z,15.50
2023-03-19T14:25:59.843Z,15.60
2023-03-19T14:28:44.638Z,15.50
2023-03-19T14:31:26.746Z,15.40
2023-03-19T14:34:17.014Z,15.50
2023-03-19T14:37:08.762Z,15.40
2023-03-19T14:39:41.710Z,15.40
2023-03-19T14:42:14.368Z,15.50
2023-03-19T14:45:15.433Z,15.40
2023-03-19T14:47:48.156Z,15.40
2023-03-19T14:50:48.624Z,15.50
2023-03-19T14:53:38.964Z,15.40
2023-03-19T14:56:15.377Z,15.50
2023-03-19T14:58:49.672Z,15.50
2023-03-19T15:01:17.178Z,15.70
2023-03-19T15:03:43.967Z,15.50
2023-03-19T15:06:14.004Z,15.30
2023-03-19T15:08:41.714Z,15.20
2023-03-19T15:11:14.367Z,15.20
2023-03-19T15:14:02.407Z,15.20
2023-03-19T15:16:53.748Z,15.40
2023-03-19T15:19:26.673Z,15.40
2023-03-19T15:22:12.695Z,15.30
2023-03-19T15:24:39.316Z,15.40
2023-03-19T15:27:35.414Z,15.50
2023-03-19T15:30:13.648Z,15.50
2023-03-19T15:33:09.428Z,15.50
2023-03-19T15:35:36.524Z,15.60
2023-03-19T15:38:08.652Z,15.30
2023-03-19T15:40:36.404Z,15.20
2023-03-19T15:43:03.221Z,15.10
2023-03-19T15:45:32.014Z,15.00
2023-03-19T15:48:16.469Z,15.10
2023-03-19T15:50:45.883Z,15.10
2023-03-19T15:53:17.979Z,15.10
2023-03-19T15:55:44.597Z,15.20
2023-03-19T15:58:21.914Z,15.20
2023-03-19T16:00:49.013Z,15.10
2023-03-19T16:03:18.938Z,15.10
2023-03-19T16:05:50.254Z,15.00
2023-03-19T16:08:25.793Z,15.00
2023-03-19T16:10:52.522Z,15.20
2023-03-19T16:13:40.402Z,15.40
2023-03-19T16:16:20.176Z,15.30
2023-03-19T16:18:52.042Z,15.30
2023-03-19T16:21:27.583Z,15.30
2023-03-19T16:24:33.751Z,15.10
2023-03-19T16:27:04.954Z,15.00
2023-03-19T16:29:37.804Z,14.90
2023-03-19T16:32:11.305Z,14.90
2023-03-19T16:34:41.692Z,14.90
2023-03-19T16:37:28.135Z,14.80
2023-03-19T16:39:57.508Z,14.70
2023-03-19T16:42:28.934Z,14.60
2023-03-19T16:44:55.731Z,14.50
2023-03-19T16:47:22.900Z,14.40
2023-03-19T16:49:49.667Z,14.40
2023-03-19T16:52:22.563Z,14.30
2023-03-19T16:54:50.161Z,14.30
2023-03-19T16:57:18.257Z,14.10
2023-03-19T16:59:46.236Z,14.00
2023-03-19T17:02:17.383Z,14.00
2023-03-19T17:04:45.097Z,13.80
2023-03-19T17:07:12.361Z,13.70
2023-03-19T17:09:39.544Z,13.70
2023-03-19T17:12:08.254Z,13.60
2023-03-19T17:14:35.231Z,13.50
2023-03-19T17:17:02.835Z,13.50
2023-03-19T17:19:36.404Z,13.50
2023-03-19T17:22:03.233Z,13.40
2023-03-19T17:24:34.352Z,13.30
2023-03-19T17:27:03.092Z,13.20
2023-03-19T17:29:30.531Z,13.10
2023-03-19T17:31:59.778Z,13.10
2023-03-19T17:34:28.397Z,13.00
2023-03-19T17:37:04.314Z,13.00
2023-03-19T17:39:30.882Z,12.90
2023-03-19T17:41:57.735Z,12.90
2023-03-19T17:44:24.702Z,12.80
2023-03-19T17:46:52.998Z,12.80
2023-03-19T17:49:26.746Z,12.80
2023-03-19T17:51:53.425Z,12.70
2023-03-19T17:54:20.064Z,12.70
2023-03-19T17:56:46.668Z,12.70
2023-03-19T17:59:13.512Z,12.40
2023-03-19T18:01:41.694Z,12.40
2023-03-19T18:04:15.378Z,12.30
2023-03-19T18:06:46.126Z,12.30
2023-03-19T18:09:24.464Z,12.30
2023-03-19T18:11:51.058Z,12.40
2023-03-19T18:14:17.958Z,12.20
2023-03-19T18:16:44.934Z,12.20
2023-03-19T18:19:31.297Z,12.20
2023-03-19T18:21:58.214Z,12.20
2023-03-19T18:24:25.178Z,12.20
2023-03-19T18:26:51.722Z,12.20
2023-03-19T18:29:18.345Z,12.20
2023-03-19T18:31:47.682Z,12.10
2023-03-19T18:34:16.211Z,12.00
2023-03-19T18:36:42.936Z,11.80
2023-03-19T18:39:13.572Z,11.90
2023-03-19T18:41:40.298Z,11.80
2023-03-19T18:44:08.226Z,11.80
2023-03-19T18:46:36.696Z,11.80
2023-03-19T18:49:26.000Z,11.70
2023-03-19T18:52:07.061Z,11.70
2023-03-19T18:54:33.650Z,11.70
2023-03-19T18:57:01.654Z,11.70
2023-03-19T18:59:31.021Z,11.70
2023-03-19T19:02:17.842Z,11.60
2023-03-19T19:04:44.479Z,11.60
2023-03-19T19:07:15.624Z,11.60
2023-03-19T19:09:42.327Z,11.60
2023-03-19T19:12:13.487Z,11.50
2023-03-19T19:14:40.435Z,11.60
2023-03-19T19:17:20.300Z,11.60
2023-03-19T19:19:46.880Z,11.50
2023-03-19T19:22:14.918Z,11.50
2023-03-19T19:24:41.605Z,11.40
2023-03-19T19:27:18.787Z,11.50
2023-03-19T19:29:46.174Z,11.40
2023-03-19T19:32:22.538Z,11.30
2023-03-19T19:34:49.092Z,11.30
2023-03-19T19:37:16.372Z,11.30
2023-03-19T19:39:42.914Z,11.20
2023-03-19T19:42:18.194Z,11.20
2023-03-19T19:44:52.598Z,11.20
2023-03-19T19:47:19.204Z,11.20
2023-03-19T19:49:45.977Z,11.20
2023-03-19T19:52:14.752Z,11.20
2023-03-19T19:54:41.367Z,11.20
2023-03-19T19:57:18.942Z,11.10
2023-03-19T19:59:45.860Z,11.00
2023-03-19T20:02:24.001Z,10.90
2023-03-19T20:04:50.641Z,10.90
2023-03-19T20:07:17.221Z,10.90
2023-03-19T20:09:43.787Z,10.90
2023-03-19T20:12:21.335Z,10.90
2023-03-19T20:14:49.226Z,10.90
2023-03-19T20:17:17.245Z,10.80
2023-03-19T20:19:44.871Z,10.80
2023-03-19T20:22:11.442Z,10.90
2023-03-19T20:24:38.553Z,10.80
2023-03-19T20:27:27.849Z,10.80
2023-03-19T20:29:54.459Z,10.80
2023-03-19T20:32:32.795Z,10.80
2023-03-19T20:34:59.695Z,10.80
2023-03-19T20:37:26.650Z,10.80
2023-03-19T20:39:53.311Z,10.80
2023-03-19T20:42:20.014Z,10.70
2023-03-19T20:44:47.250Z,10.70
2023-03-19T20:47:19.795Z,10.60
2023-03-19T20:49:47.429Z,10.60
2023-03-19T20:52:13.963Z,10.70
2023-03-19T20:54:41.306Z,10.70
2023-03-19T20:57:24.753Z,10.70
2023-03-19T20:59:51.319Z,10.70
2023-03-19T21:02:20.684Z,10.70
2023-03-19T21:04:47.688Z,10.70
2023-03-19T21:07:26.431Z,10.60
2023-03-19T21:09:53.046Z,10.60
2023-03-19T21:12:30.992Z,10.60
2023-03-19T21:14:59.437Z,10.60
2023-03-19T21:17:29.215Z,10.60
2023-03-19T21:19:56.370Z,10.60
2023-03-19T21:22:26.806Z,10.60
2023-03-19T21:25:16.729Z,10.60
2023-03-19T21:27:46.914Z,10.60
2023-03-19T21:30:16.988Z,10.60
2023-03-19T21:32:43.634Z,10.60
2023-03-19T21:35:36.776Z,10.60
2023-03-19T21:38:03.529Z,10.60
2023-03-19T21:40:30.975Z,10.50
2023-03-19T21:43:02.140Z,10.50
2023-03-19T21:45:34.292Z,10.50
2023-03-19T21:48:23.899Z,10.40
2023-03-19T21:50:51.221Z,10.40
2023-03-19T21:53:18.616Z,10.40
2023-03-19T21:55:46.050Z,10.40
2023-03-19T21:58:14.704Z,10.40
2023-03-19T22:00:41.267Z,10.40
2023-03-19T22:03:16.073Z,10.30
2023-03-19T22:05:42.708Z,10.30
2023-03-19T22:08:09.317Z,10.20
2023-03-19T22:10:36.053Z,10.20
2023-03-19T22:13:02.764Z,10.20
2023-03-19T22:15:37.657Z,10.20
2023-03-19T22:18:06.677Z,10.20
2023-03-19T22:20:33.235Z,10.20
2023-03-19T22:22:59.841Z,10.10
2023-03-19T22:25:31.888Z,10.20
2023-03-19T22:27:58.898Z,10.20
2023-03-19T22:30:37.754Z,10.10
2023-03-19T22:33:17.023Z,10.10
2023-03-19T22:35:44.884Z,10.10
2023-03-19T22:38:12.340Z,10.20
2023-03-19T22:40:39.534Z,10.10
2023-03-19T22:43:31.497Z,10.10
2023-03-19T22:46:04.653Z,10.10
2023-03-19T22:48:31.354Z,10.20
2023-03-19T22:50:57.936Z,10.10
2023-03-19T22:53:28.692Z,10.10
2023-03-19T22:55:55.821Z,10.10
2023-03-19T22:58:23.543Z,10.00
2023-03-19T23:00:50.979Z,10.00
2023-03-19T23:03:23.369Z,10.00
2023-03-19T23:05:53.987Z,10.10
2023-03-19T23:08:20.581Z,10.10
2023-03-19T23:10:47.211Z,10.00
2023-03-19T23:13:14.061Z,10.00
2023-03-19T23:15:42.034Z,10.00
2023-03-19T23:18:17.949Z,10.00
2023-03-19T23:20:45.033Z,9.90
2023-03-19T23:23:13.621Z,9.90
2023-03-19T23:25:40.401Z,9.90
2023-03-19T23:28:22.455Z,9.90
2023-03-19T23:30:51.095Z,9.90
2023-03-19T23:33:21.671Z,9.90
2023-03-19T23:35:48.677Z,9.90
2023-03-19T23:38:15.412Z,9.90
2023-03-19T23:40:43.486Z,9.80
2023-03-19T23:43:21.253Z,9.80
2023-03-19T23:45:48.984Z,9.80
2023-03-19T23:48:26.189Z,9.80
2023-03-19T23:50:52.897Z,9.80
2023-03-19T23:53:27.259Z,9.80
2023-03-19T23:56:00.191Z,9.70
2023-03-19T23:58:36.372Z,9.70
